< Typhoon 202217 2022 Season Typhoon 202219 >
Typhoon 202218 (ROKE)
General InformationDetailed Track InformationTrack Information on Google MapsForecast History on Google MapsAccess Analytics MapList of All Images || NewsDisaster Info.JMA Disaster Info. XMLWeblogTrackbackTyphoon FrontTwiphoonTyphoon Now!Typhoon ImaginationResourceGoogle EarthGE AnimationAtom FeedGeoJSON
Detalied Best Track Wind (Time Zone = UTC)
Year Month Day Hour Lat. Long. Wind (kt) Gust (kt) Direc. of Major Storm Axis Radius of Major Storm Axis (nm) Radius of Minor Storm Axis (nm) Direc. of Major Gale Axis Radius of Major Gale Axis (nm) Radius of Minor Gale Axis (nm) Image
2022 9 28 00 21.1 132.5 30 45 - - - - - - Image
2022 9 28 03 21.3 132.2 30 45 - - - - - - Image
2022 9 28 06 21.4 131.9 30 45 - - - - - - Image
2022 9 28 09 22.2 131.9 30 45 - - - - - - Image
2022 9 28 12 23.0 131.7 35 50 - - - NE 120 90 Image
2022 9 28 15 23.4 131.2 35 50 - - - NE 120 90 Image
2022 9 28 18 23.8 131.7 40 60 - - - NE 120 90 Image
2022 9 28 21 24.5 131.7 40 60 - - - NE 120 90 Image
2022 9 29 00 24.9 131.6 45 65 - - - NE 120 90 Image
2022 9 29 03 25.3 131.8 45 65 - - - NE 120 90 Image
2022 9 29 06 25.7 132.0 55 80 symmetric 30 30 NE 120 90 Image
2022 9 29 09 26.1 132.6 55 80 symmetric 30 30 NE 120 90 Image
2022 9 29 12 26.6 133.1 65 95 symmetric 30 30 NE 120 90 Image
2022 9 29 15 27.0 133.7 65 95 symmetric 30 30 NE 120 90 Image
2022 9 29 18 27.6 134.3 70 100 symmetric 40 40 NE 120 90 Image
2022 9 29 21 27.9 135.1 70 100 symmetric 40 40 NE 120 90 Image
2022 9 30 00 28.2 136.0 70 100 symmetric 40 40 NE 120 90 Image
2022 9 30 03 28.6 137.0 70 100 symmetric 40 40 NE 120 90 Image
2022 9 30 06 28.9 138.0 65 95 symmetric 40 40 NE 120 90 Image
2022 9 30 09 29.6 139.2 60 85 symmetric 40 40 NE 120 90 Image
2022 9 30 12 30.2 140.3 55 80 NE 30 20 NE 120 90 Image
2022 9 30 15 30.6 141.3 55 80 E 30 20 E 120 90 Image
2022 9 30 18 31.1 142.7 50 70 - - - E 120 90 Image
2022 9 30 21 31.3 143.6 50 70 - - - E 120 90 Image
2022 10 1 00 31.7 144.4 50 70 - - - E 120 90 Image
2022 10 1 03 32.3 145.4 50 70 - - - E 120 90 Image
2022 10 1 06 33.0 146.6 50 70 - - - E 120 90 Image
2022 10 1 09 33.6 147.6 50 70 - - - E 120 90 Image
2022 10 1 12 34.0 148.3 50 70 - - - NE 150 90 Image
2022 10 1 15 34.7 149.1 50 70 - - - NE 150 90 Image
2022 10 1 18 35.0 150.0 50 0 - - - symmetric 300 300 Image
Japan Meteorological Agency Best Track Data | Correction Date : 2022-10-01
< Typhoon 202217 2022 Season Typhoon 202219 >

Help